Time;durP1;ratioP1;P1;durP2;ratioP2;P2;SDS_P1;SDS_P2;PMS_P1;PMS_P2;Temp;Humidity;BMP_temperature;BMP_pressure;BME280_temperature;BME280_humidity;BME280_pressure;Samples;Min_cycle;Max_cycle;Signal;HPM_P1;HPM_P2
2021/03/31 00:00:49;;;;;;;23.97;19.57;;;11.30;99.90;;;;;;5059127;28;20303;-76
2021/03/31 00:03:19;;;;;;;21.97;18.83;;;11.20;99.90;;;;;;5058728;28;20287;-77
2021/03/31 00:05:45;;;;;;;23.07;19.00;;;11.20;99.90;;;;;;5056595;28;20577;-76
2021/03/31 00:08:12;;;;;;;21.93;19.00;;;11.20;99.90;;;;;;5059598;28;20221;-77
2021/03/31 00:10:42;;;;;;;23.03;19.17;;;11.20;99.90;;;;;;5052905;28;20325;-77
2021/03/31 00:13:09;;;;;;;23.47;18.93;;;11.20;99.90;;;;;;5059835;28;20210;-76
2021/03/31 00:15:37;;;;;;;25.20;19.03;;;11.20;99.90;;;;;;5060968;28;20237;-76
2021/03/31 00:18:06;;;;;;;22.70;18.40;;;11.10;99.90;;;;;;5059296;28;20248;-76
2021/03/31 00:20:32;;;;;;;25.90;21.47;;;11.20;99.90;;;;;;5056395;28;20225;-76
2021/03/31 00:22:59;;;;;;;25.37;19.50;;;11.10;99.90;;;;;;5055624;28;20216;-76
2021/03/31 00:25:26;;;;;;;23.70;19.17;;;11.10;99.90;;;;;;5062036;28;20823;-77
2021/03/31 00:27:53;;;;;;;25.30;20.43;;;11.10;99.90;;;;;;5061155;28;20241;-78
2021/03/31 00:30:20;;;;;;;23.17;19.27;;;11.10;99.90;;;;;;5055148;28;20292;-78
2021/03/31 00:32:48;;;;;;;23.83;18.97;;;11.10;99.90;;;;;;5059902;28;20217;-79
2021/03/31 00:35:14;;;;;;;24.23;19.20;;;11.10;99.90;;;;;;5055139;28;20316;-79
2021/03/31 00:37:41;;;;;;;25.97;19.87;;;11.10;99.90;;;;;;5059698;28;20237;-78
2021/03/31 00:40:10;;;;;;;25.93;20.87;;;11.10;99.90;;;;;;5055426;28;20235;-79
2021/03/31 00:42:37;;;;;;;23.93;20.37;;;11.10;99.90;;;;;;5063675;28;20278;-79
2021/03/31 00:45:05;;;;;;;25.53;20.53;;;11.10;99.90;;;;;;5058302;28;20207;-80
2021/03/31 00:47:31;;;;;;;29.63;22.23;;;11.10;99.90;;;;;;5063364;28;20237;-79
2021/03/31 00:49:59;;;;;;;26.77;19.20;;;11.10;99.90;;;;;;5064636;28;20252;-79
2021/03/31 00:52:26;;;;;;;25.87;20.10;;;11.10;99.90;;;;;;5067743;28;20205;-80
2021/03/31 00:54:52;;;;;;;30.17;21.37;;;11.00;99.90;;;;;;5062867;28;20248;-79
2021/03/31 00:57:19;;;;;;;24.53;20.87;;;11.00;99.90;;;;;;5058692;28;20229;-80
2021/03/31 00:59:45;;;;;;;24.37;20.27;;;11.00;99.90;;;;;;5061755;28;20198;-79
2021/03/31 01:02:12;;;;;;;27.77;20.53;;;11.10;99.90;;;;;;5071241;28;20398;-81
2021/03/31 01:04:38;;;;;;;24.70;21.27;;;11.00;99.90;;;;;;5063713;28;20194;-80
2021/03/31 01:07:10;;;;;;;26.03;20.03;;;11.00;99.90;;;;;;5065930;28;20209;-80
2021/03/31 01:09:36;;;;;;;25.90;20.57;;;11.00;99.90;;;;;;5058864;28;20221;-80
2021/03/31 01:12:13;;;;;;;28.07;21.00;;;11.00;99.90;;;;;;5064708;28;20230;-80
2021/03/31 01:14:56;;;;;;;25.93;20.80;;;11.00;99.90;;;;;;5056371;28;20230;-79
2021/03/31 01:17:27;;;;;;;22.63;20.13;;;11.00;99.90;;;;;;5055379;28;20198;-79
2021/03/31 01:20:21;;;;;;;25.80;20.30;;;11.00;99.90;;;;;;5057534;28;20246;-78
2021/03/31 01:23:31;;;;;;;27.83;21.07;;;11.00;99.90;;;;;;5063726;28;20236;-79
2021/03/31 01:26:03;;;;;;;26.67;21.13;;;11.00;99.90;;;;;;5060486;28;20209;-80
2021/03/31 01:28:46;;;;;;;26.97;20.70;;;11.00;99.90;;;;;;5068144;28;20233;-78
2021/03/31 01:31:28;;;;;;;27.37;22.27;;;11.00;99.90;;;;;;5062062;28;20212;-80
2021/03/31 01:34:28;;;;;;;25.23;19.40;;;11.00;99.90;;;;;;5058334;28;20213;-79
2021/03/31 01:36:56;;;;;;;26.07;20.90;;;11.00;99.90;;;;;;5062992;28;20289;-80
2021/03/31 01:39:24;;;;;;;28.80;20.97;;;11.00;99.90;;;;;;5058178;28;20222;-79
2021/03/31 01:41:52;;;;;;;29.53;21.87;;;11.00;99.90;;;;;;5057275;28;20237;-79
2021/03/31 01:44:20;;;;;;;28.53;21.70;;;11.00;99.90;;;;;;5059664;28;20202;-80
2021/03/31 01:46:53;;;;;;;26.73;21.43;;;11.00;99.90;;;;;;5054460;28;20293;-80
2021/03/31 01:49:21;;;;;;;25.37;20.87;;;11.00;99.90;;;;;;5056751;28;20300;-80
2021/03/31 01:51:49;;;;;;;26.90;21.13;;;11.00;99.90;;;;;;5057760;28;20197;-79
2021/03/31 01:54:18;;;;;;;28.20;21.97;;;11.00;99.90;;;;;;5055731;28;20213;-80
2021/03/31 01:56:46;;;;;;;26.70;20.50;;;10.90;99.90;;;;;;5059710;28;20228;-80
2021/03/31 01:59:16;;;;;;;26.90;21.90;;;10.90;99.90;;;;;;5065518;28;20209;-78
2021/03/31 02:01:43;;;;;;;28.93;21.50;;;10.90;99.90;;;;;;5057431;28;20300;-78
2021/03/31 02:04:10;;;;;;;28.23;21.97;;;10.90;99.90;;;;;;5060623;28;20213;-78
2021/03/31 02:06:38;;;;;;;25.73;20.97;;;10.90;99.90;;;;;;5055704;28;20228;-79
2021/03/31 02:09:06;;;;;;;28.03;21.33;;;10.90;99.90;;;;;;5062060;28;20304;-78
2021/03/31 02:11:33;;;;;;;29.00;21.53;;;10.90;99.90;;;;;;5061126;28;20233;-78
2021/03/31 02:14:01;;;;;;;26.00;20.90;;;10.80;99.90;;;;;;5054706;28;20732;-78
2021/03/31 02:16:28;;;;;;;27.77;22.03;;;10.80;99.90;;;;;;5058705;28;20269;-79
2021/03/31 02:18:59;;;;;;;29.67;21.63;;;10.80;99.90;;;;;;5060218;28;20273;-79
2021/03/31 02:21:26;;;;;;;30.77;21.40;;;10.80;99.90;;;;;;5054454;28;20210;-79
2021/03/31 02:23:54;;;;;;;29.20;22.83;;;10.80;99.90;;;;;;5051787;28;20271;-78
2021/03/31 02:26:23;;;;;;;31.57;21.83;;;10.80;99.90;;;;;;5057836;28;20265;-78
2021/03/31 02:28:52;;;;;;;31.47;22.77;;;10.80;99.90;;;;;;5060679;28;20262;-78
2021/03/31 02:31:20;;;;;;;28.13;22.17;;;10.80;99.90;;;;;;5055145;28;20230;-80
2021/03/31 02:33:48;;;;;;;26.27;21.43;;;10.80;99.90;;;;;;5061182;28;20213;-79
2021/03/31 02:36:15;;;;;;;29.33;23.30;;;10.80;99.90;;;;;;5057764;28;20206;-80
2021/03/31 02:38:42;;;;;;;26.57;21.77;;;10.70;99.90;;;;;;5050468;28;20357;-78
2021/03/31 02:41:10;;;;;;;28.53;21.40;;;10.70;99.90;;;;;;5048758;28;20292;-78
2021/03/31 02:43:42;;;;;;;30.47;23.20;;;10.80;99.90;;;;;;5053222;28;20201;-78
2021/03/31 02:46:13;;;;;;;33.03;23.57;;;10.70;99.90;;;;;;5055082;28;20202;-80
2021/03/31 02:48:43;;;;;;;28.13;22.67;;;10.70;99.90;;;;;;5058966;28;20264;-79
2021/03/31 02:51:10;;;;;;;32.57;23.03;;;10.70;99.90;;;;;;5063037;28;20265;-80
2021/03/31 02:53:37;;;;;;;27.53;22.67;;;10.70;99.90;;;;;;5061013;28;20204;-80
2021/03/31 02:56:05;;;;;;;29.70;22.33;;;10.70;99.90;;;;;;5064612;28;20190;-80
2021/03/31 02:58:32;;;;;;;30.40;23.10;;;10.60;99.90;;;;;;5069540;28;20202;-80
2021/03/31 03:00:59;;;;;;;31.53;23.10;;;10.70;99.90;;;;;;5062927;28;20270;-79
2021/03/31 03:03:27;;;;;;;32.00;24.60;;;10.70;99.90;;;;;;5069468;28;20233;-80
2021/03/31 03:05:55;;;;;;;28.50;22.80;;;10.60;99.90;;;;;;5073804;28;20635;-80
2021/03/31 03:08:24;;;;;;;28.57;22.60;;;10.60;99.90;;;;;;5091913;28;20205;-81
2021/03/31 03:10:52;;;;;;;32.53;24.13;;;10.60;99.90;;;;;;5070713;28;20230;-81
2021/03/31 03:13:21;;;;;;;31.03;23.47;;;10.60;99.90;;;;;;5067557;28;20221;-81
2021/03/31 03:15:47;;;;;;;32.83;24.47;;;10.60;99.90;;;;;;5075450;28;20228;-80
2021/03/31 03:18:14;;;;;;;28.93;22.43;;;10.60;99.90;;;;;;5064363;28;20210;-81
2021/03/31 03:20:42;;;;;;;32.70;23.17;;;10.50;99.90;;;;;;5071152;28;20704;-80
2021/03/31 03:23:09;;;;;;;32.57;24.07;;;10.50;99.90;;;;;;5070955;28;20202;-82
2021/03/31 03:25:37;;;;;;;32.60;23.40;;;10.50;99.90;;;;;;5071175;28;20297;-81
2021/03/31 03:28:05;;;;;;;30.97;23.87;;;10.50;99.90;;;;;;5076022;28;20712;-81
2021/03/31 03:30:34;;;;;;;33.70;23.90;;;10.50;99.90;;;;;;5075790;28;20312;-81
2021/03/31 03:33:01;;;;;;;30.87;23.70;;;10.50;99.90;;;;;;5066393;28;20233;-81
2021/03/31 03:35:28;;;;;;;32.77;24.97;;;10.40;99.90;;;;;;5065707;28;20202;-81
2021/03/31 03:37:56;;;;;;;33.33;24.27;;;10.40;99.90;;;;;;5060821;28;20233;-80
2021/03/31 03:40:25;;;;;;;35.37;25.40;;;10.40;99.90;;;;;;5062119;28;20245;-79
2021/03/31 03:42:52;;;;;;;34.40;24.53;;;10.40;99.90;;;;;;5068003;28;20488;-80
2021/03/31 03:45:21;;;;;;;34.30;24.33;;;10.40;99.90;;;;;;5061534;28;20574;-81
2021/03/31 03:47:48;;;;;;;35.17;24.23;;;10.50;99.90;;;;;;5067588;28;20305;-82
2021/03/31 03:50:16;;;;;;;35.47;24.93;;;10.40;99.90;;;;;;5068829;28;20236;-82
2021/03/31 03:52:45;;;;;;;32.67;25.50;;;10.30;99.90;;;;;;5069019;28;20210;-81
2021/03/31 03:55:17;;;;;;;36.40;25.13;;;10.30;99.90;;;;;;5070503;28;20213;-83
2021/03/31 03:57:43;;;;;;;33.53;25.87;;;10.40;99.90;;;;;;5065429;28;20210;-81
2021/03/31 04:00:15;;;;;;;40.00;26.33;;;10.30;99.90;;;;;;5066157;28;20193;-81
2021/03/31 04:02:41;;;;;;;37.30;26.67;;;10.30;99.90;;;;;;5057049;28;20205;-78
2021/03/31 04:05:09;;;;;;;37.13;27.50;;;10.30;99.90;;;;;;5057110;28;20198;-78
2021/03/31 04:07:36;;;;;;;37.47;29.50;;;10.40;99.90;;;;;;5062803;28;20590;-78
2021/03/31 04:10:05;;;;;;;37.60;28.63;;;10.30;99.90;;;;;;5062240;28;20242;-79
2021/03/31 04:12:34;;;;;;;42.43;29.17;;;10.30;99.90;;;;;;5056065;28;20566;-78
2021/03/31 04:15:02;;;;;;;42.57;28.93;;;10.30;99.90;;;;;;5064318;28;20226;-79
2021/03/31 04:17:31;;;;;;;39.43;28.40;;;10.30;99.90;;;;;;5061551;28;20327;-79
2021/03/31 04:19:59;;;;;;;40.93;29.20;;;10.30;99.90;;;;;;5062556;28;20198;-79
2021/03/31 04:22:27;;;;;;;38.40;28.73;;;10.30;99.90;;;;;;5058573;28;20309;-79
2021/03/31 04:24:55;;;;;;;41.33;27.60;;;10.30;99.90;;;;;;5062193;28;20212;-80
2021/03/31 04:27:23;;;;;;;36.07;27.20;;;10.30;99.90;;;;;;5065828;28;20642;-80
2021/03/31 04:29:51;;;;;;;40.33;28.03;;;10.30;99.90;;;;;;5067193;28;20229;-79
2021/03/31 04:32:20;;;;;;;39.10;29.37;;;10.30;99.90;;;;;;5071045;28;20224;-80
2021/03/31 04:34:46;;;;;;;40.03;28.63;;;10.40;99.90;;;;;;5070618;28;20232;-79
2021/03/31 04:37:14;;;;;;;36.80;29.00;;;10.30;99.90;;;;;;5058419;28;20233;-79
2021/03/31 04:39:42;;;;;;;42.00;28.40;;;10.30;99.90;;;;;;5058887;28;20232;-79
2021/03/31 04:42:10;;;;;;;38.17;27.77;;;10.40;99.90;;;;;;5060999;28;20265;-79
2021/03/31 04:44:37;;;;;;;37.73;28.40;;;10.40;99.90;;;;;;5059606;28;20225;-78
2021/03/31 04:47:05;;;;;;;38.43;29.33;;;10.40;99.90;;;;;;5061241;28;20343;-80
2021/03/31 04:49:32;;;;;;;42.70;28.63;;;10.40;99.90;;;;;;5063488;28;20233;-80
2021/03/31 04:51:59;;;;;;;40.43;29.90;;;10.40;99.90;;;;;;5059976;28;20301;-79
2021/03/31 04:54:25;;;;;;;38.73;27.90;;;10.50;99.90;;;;;;5060639;28;20205;-80
2021/03/31 04:56:53;;;;;;;41.77;28.70;;;10.50;99.90;;;;;;5058733;28;20220;-79
2021/03/31 04:59:19;;;;;;;38.73;28.37;;;10.50;99.90;;;;;;5060293;28;20232;-79
2021/03/31 05:01:46;;;;;;;42.53;28.73;;;10.60;99.90;;;;;;5053895;28;20216;-79
2021/03/31 05:04:13;;;;;;;40.07;29.37;;;10.70;99.90;;;;;;5060247;28;20293;-79
2021/03/31 05:06:39;;;;;;;39.67;28.47;;;10.70;99.90;;;;;;5067774;28;20237;-77
2021/03/31 05:09:07;;;;;;;41.57;29.87;;;10.70;99.90;;;;;;5062677;28;20316;-78
2021/03/31 05:11:33;;;;;;;41.50;29.77;;;10.80;99.90;;;;;;5055412;28;20333;-77
2021/03/31 05:13:59;;;;;;;39.43;28.77;;;10.90;99.90;;;;;;5059154;28;20305;-77
2021/03/31 05:16:26;;;;;;;37.47;28.33;;;10.90;99.90;;;;;;5055039;28;20206;-77
2021/03/31 05:18:52;;;;;;;40.83;29.70;;;10.90;99.90;;;;;;5056648;28;20334;-78
2021/03/31 05:21:19;;;;;;;38.63;29.07;;;11.00;99.90;;;;;;5057395;28;20725;-78
2021/03/31 05:23:46;;;;;;;39.97;29.67;;;11.10;99.90;;;;;;5053241;28;20198;-78
2021/03/31 05:26:12;;;;;;;38.70;29.73;;;11.10;99.90;;;;;;5060101;28;20248;-77
2021/03/31 05:28:38;;;;;;;41.53;30.10;;;11.20;99.90;;;;;;5064833;28;20304;-78
2021/03/31 05:31:05;;;;;;;39.33;28.67;;;11.30;99.90;;;;;;5053236;28;20655;-77
2021/03/31 05:33:31;;;;;;;39.50;29.43;;;11.30;99.90;;;;;;5055167;28;20301;-79
2021/03/31 05:35:58;;;;;;;40.73;29.43;;;11.40;99.90;;;;;;5058263;28;20364;-77
2021/03/31 05:38:25;;;;;;;42.93;30.47;;;11.50;99.90;;;;;;5057451;28;20201;-78
2021/03/31 05:40:51;;;;;;;43.90;30.17;;;11.50;99.90;;;;;;5065780;28;20756;-79
2021/03/31 05:43:18;;;;;;;43.30;29.53;;;11.60;99.90;;;;;;5059213;28;20249;-78
2021/03/31 05:45:46;;;;;;;37.93;29.13;;;11.70;99.90;;;;;;5064751;28;20205;-79
2021/03/31 05:48:13;;;;;;;40.27;30.07;;;11.80;99.90;;;;;;5063052;28;20297;-77
2021/03/31 05:50:39;;;;;;;41.53;30.83;;;11.90;99.90;;;;;;5058123;28;20226;-77
2021/03/31 05:53:07;;;;;;;41.83;28.87;;;12.00;99.90;;;;;;5059310;28;20308;-79
2021/03/31 05:55:34;;;;;;;40.50;30.33;;;12.10;99.90;;;;;;5060544;28;20631;-79
2021/03/31 05:58:03;;;;;;;38.70;28.87;;;12.20;99.90;;;;;;5056022;28;20237;-78
2021/03/31 06:00:30;;;;;;;41.33;30.00;;;12.20;99.90;;;;;;5057218;28;20229;-78
2021/03/31 06:02:57;;;;;;;37.47;29.10;;;12.30;99.90;;;;;;5059799;28;20239;-79
2021/03/31 06:05:24;;;;;;;38.90;29.20;;;12.40;99.90;;;;;;5050328;28;20205;-78
2021/03/31 06:07:50;;;;;;;39.27;29.03;;;12.40;99.90;;;;;;5057502;28;20703;-70
2021/03/31 06:10:18;;;;;;;40.13;29.33;;;12.50;99.90;;;;;;5049036;28;20337;-70
2021/03/31 06:12:48;;;;;;;35.30;28.13;;;12.50;99.90;;;;;;5054572;28;20263;-70
2021/03/31 06:15:24;;;;;;;41.70;29.90;;;12.50;99.90;;;;;;5045534;28;20231;-70
2021/03/31 06:17:53;;;;;;;44.30;29.10;;;12.50;99.90;;;;;;5046109;28;20221;-69
2021/03/31 06:20:48;;;;;;;41.83;29.83;;;12.50;99.90;;;;;;5053036;28;20543;-77
2021/03/31 06:23:36;;;;;;;37.20;27.50;;;12.60;99.90;;;;;;5057713;28;20232;-75
2021/03/31 06:26:18;;;;;;;37.23;27.93;;;12.70;99.90;;;;;;5051297;28;20220;-75
2021/03/31 06:28:52;;;;;;;35.07;26.83;;;12.90;99.90;;;;;;5055349;28;20210;-75
2021/03/31 06:31:19;;;;;;;36.20;27.37;;;13.10;99.90;;;;;;5060888;28;20567;-76
2021/03/31 06:33:47;;;;;;;39.03;28.23;;;13.30;99.90;;;;;;5060552;28;20201;-74
2021/03/31 06:36:17;;;;;;;37.33;27.20;;;13.30;99.90;;;;;;5060017;28;20340;-76
2021/03/31 06:38:50;;;;;;;39.73;27.47;;;13.30;99.90;;;;;;5059918;28;20197;-78
2021/03/31 06:41:28;;;;;;;39.40;26.77;;;13.40;99.90;;;;;;5061691;28;20202;-78
2021/03/31 06:44:11;;;;;;;37.23;27.33;;;13.50;99.90;;;;;;5061235;28;20585;-76
2021/03/31 06:46:49;;;;;;;40.93;27.77;;;13.60;99.90;;;;;;5062479;28;20284;-75
2021/03/31 06:49:16;;;;;;;37.60;28.40;;;13.70;99.90;;;;;;5061298;28;20291;-78
2021/03/31 06:51:43;;;;;;;35.40;27.07;;;13.80;99.90;;;;;;5059534;28;20230;-75
2021/03/31 06:54:14;;;;;;;34.53;27.30;;;13.80;99.90;;;;;;5059369;28;20210;-77
2021/03/31 06:56:43;;;;;;;35.83;26.87;;;13.90;99.90;;;;;;5059974;28;20292;-77
2021/03/31 06:59:11;;;;;;;32.83;25.43;;;14.00;99.90;;;;;;5060213;28;20202;-75
2021/03/31 07:01:39;;;;;;;33.20;25.13;;;14.10;99.90;;;;;;5057376;28;20288;-77
2021/03/31 07:04:07;;;;;;;30.67;24.43;;;14.30;99.90;;;;;;5059352;28;20694;-74
2021/03/31 07:06:34;;;;;;;32.00;25.03;;;14.40;99.90;;;;;;5061091;28;20229;-75
2021/03/31 07:09:01;;;;;;;31.47;24.70;;;14.50;99.90;;;;;;5057708;28;20232;-75
2021/03/31 07:11:40;;;;;;;32.70;24.80;;;14.60;99.90;;;;;;5062139;28;20268;-76
2021/03/31 07:14:08;;;;;;;31.13;24.53;;;14.80;99.90;;;;;;5058726;28;20229;-75
2021/03/31 07:16:37;;;;;;;30.33;22.83;;;14.90;99.90;;;;;;5070551;28;20217;-74
2021/03/31 07:19:04;;;;;;;32.93;23.80;;;15.00;99.90;;;;;;5080403;28;20662;-74
2021/03/31 07:21:32;;;;;;;30.23;22.87;;;15.10;99.90;;;;;;5081182;28;20660;-76
2021/03/31 07:23:59;;;;;;;27.77;21.60;;;15.20;99.90;;;;;;5065724;28;20220;-73
2021/03/31 07:26:26;;;;;;;28.27;20.77;;;15.30;99.90;;;;;;5065292;28;20562;-75
2021/03/31 07:28:53;;;;;;;29.80;20.67;;;15.30;99.90;;;;;;5067379;28;20244;-75
2021/03/31 07:31:26;;;;;;;26.93;21.00;;;15.40;99.90;;;;;;5067923;28;20217;-77
2021/03/31 07:34:09;;;;;;;24.87;20.70;;;15.40;99.90;;;;;;5068185;28;20212;-78
2021/03/31 07:36:36;;;;;;;28.60;21.00;;;15.60;99.90;;;;;;5068103;28;20343;-77
2021/03/31 07:39:04;;;;;;;24.23;19.73;;;15.70;99.90;;;;;;5065958;28;20216;-75
2021/03/31 07:41:35;;;;;;;26.47;21.37;;;15.70;99.90;;;;;;5063492;28;20235;-75
2021/03/31 07:44:02;;;;;;;26.93;20.37;;;15.80;99.90;;;;;;5060844;28;20209;-77
2021/03/31 07:46:32;;;;;;;25.37;19.73;;;16.00;99.90;;;;;;5059645;28;20662;-75
2021/03/31 07:49:00;;;;;;;32.77;21.13;;;16.10;99.90;;;;;;5067133;28;20653;-76
2021/03/31 07:51:28;;;;;;;28.50;19.17;;;16.30;99.90;;;;;;5059960;28;20279;-75
2021/03/31 07:53:56;;;;;;;23.77;17.90;;;16.50;99.90;;;;;;5056362;28;20316;-73
2021/03/31 07:56:28;;;;;;;24.83;18.63;;;16.70;99.90;;;;;;5055461;28;20198;-79
2021/03/31 07:59:21;;;;;;;25.33;17.47;;;16.90;99.90;;;;;;5057916;28;20259;-74
2021/03/31 08:01:51;;;;;;;21.90;16.33;;;17.10;99.90;;;;;;5026230;28;20770;-75
2021/03/31 08:04:20;;;;;;;23.37;15.53;;;17.30;99.90;;;;;;5054876;28;20210;-76
2021/03/31 08:06:49;;;;;;;21.43;15.60;;;17.30;99.90;;;;;;5056079;28;20590;-77
2021/03/31 08:09:21;;;;;;;25.20;15.97;;;17.50;99.90;;;;;;5056396;28;20272;-75
2021/03/31 08:11:59;;;;;;;20.30;14.13;;;17.70;99.90;;;;;;5058778;28;20233;-75
2021/03/31 08:14:45;;;;;;;22.60;14.37;;;18.00;99.90;;;;;;5053584;28;20260;-75
2021/03/31 08:17:14;;;;;;;23.17;14.83;;;18.10;99.90;;;;;;5053661;28;20691;-77
2021/03/31 08:19:44;;;;;;;17.80;14.07;;;18.10;99.90;;;;;;5065510;28;20208;-77
2021/03/31 08:22:34;;;;;;;20.42;15.30;;;18.20;99.90;;;;;;5048047;28;20206;-75
2021/03/31 08:25:11;;;;;;;22.17;15.33;;;18.30;99.90;;;;;;5056987;28;20206;-75
2021/03/31 08:28:03;;;;;;;20.67;15.27;;;18.40;99.90;;;;;;5055403;28;20220;-77
2021/03/31 08:30:30;;;;;;;22.27;16.07;;;18.50;99.90;;;;;;5050981;28;20226;-77
2021/03/31 08:32:57;;;;;;;20.03;15.63;;;18.60;99.90;;;;;;5053899;28;20209;-77
2021/03/31 08:35:27;;;;;;;22.33;14.98;;;18.70;99.90;;;;;;5057626;28;20613;-78
2021/03/31 08:37:53;;;;;;;21.95;15.95;;;18.80;99.90;;;;;;5048624;28;20198;-76
2021/03/31 08:40:21;;;;;;;22.33;15.88;;;19.00;99.90;;;;;;5057195;28;20201;-76
2021/03/31 08:42:49;;;;;;;24.08;15.95;;;19.30;99.90;;;;;;5050069;28;20193;-77
2021/03/31 08:45:28;;;;;;;22.17;16.73;;;19.40;99.90;;;;;;5057054;28;20569;-77
2021/03/31 08:47:54;;;;;;;22.35;14.85;;;19.40;99.90;;;;;;5048170;28;20650;-76
2021/03/31 08:50:36;;;;;;;19.98;15.20;;;19.60;99.90;;;;;;5050263;28;20565;-75
2021/03/31 08:53:05;;;;;;;20.83;16.65;;;19.60;99.90;;;;;;5051647;28;20241;-75
2021/03/31 08:55:33;;;;;;;30.13;17.42;;;19.50;99.40;;;;;;5051337;28;20311;-75
2021/03/31 08:58:01;;;;;;;18.23;15.35;;;19.50;99.90;;;;;;5046767;28;20213;-76
2021/03/31 09:00:28;;;;;;;17.13;12.88;;;19.60;99.60;;;;;;5049474;28;20186;-75
2021/03/31 09:03:04;;;;;;;17.15;12.25;;;19.80;98.90;;;;;;5053079;28;20201;-76
2021/03/31 09:05:32;;;;;;;15.68;12.93;;;19.90;96.80;;;;;;5047390;28;20236;-76
2021/03/31 09:07:59;;;;;;;16.73;12.88;;;20.10;96.10;;;;;;5050854;28;20312;-76
2021/03/31 09:10:27;;;;;;;14.57;12.02;;;20.20;95.30;;;;;;5049746;28;20251;-77
2021/03/31 09:12:55;;;;;;;16.70;10.93;;;20.40;94.90;;;;;;5052669;28;20217;-76
2021/03/31 09:15:21;;;;;;;14.45;11.45;;;20.60;96.20;;;;;;5053813;28;20225;-77
2021/03/31 09:17:54;;;;;;;13.68;11.60;;;21.40;96.10;;;;;;5053927;28;20714;-76
2021/03/31 09:20:20;;;;;;;17.30;12.20;;;23.40;93.70;;;;;;5052654;28;20208;-76
2021/03/31 09:22:48;;;;;;;11.07;9.02;;;25.90;73.80;;;;;;5058137;28;20247;-76
2021/03/31 09:25:17;;;;;;;14.82;9.43;;;27.40;60.90;;;;;;5056555;28;20670;-75
2021/03/31 09:27:44;;;;;;;11.48;8.38;;;28.30;55.40;;;;;;5054036;28;20222;-76
2021/03/31 09:30:13;;;;;;;11.52;8.55;;;28.90;53.40;;;;;;5056388;28;20257;-76
2021/03/31 09:32:48;;;;;;;12.88;9.50;;;29.60;50.40;;;;;;5051673;28;20214;-76
2021/03/31 09:35:17;;;;;;;10.77;8.60;;;30.30;48.00;;;;;;5053653;28;20209;-76
2021/03/31 09:37:45;;;;;;;13.25;8.60;;;31.00;46.20;;;;;;5048559;28;20217;-75
2021/03/31 09:40:20;;;;;;;13.00;9.00;;;31.60;44.40;;;;;;5048076;28;20283;-75
2021/03/31 09:42:47;;;;;;;11.20;8.93;;;31.90;43.40;;;;;;5046408;28;20213;-74
2021/03/31 09:45:17;;;;;;;10.30;8.10;;;32.00;42.30;;;;;;5044841;28;20260;-76
2021/03/31 09:47:44;;;;;;;11.38;8.07;;;31.70;42.80;;;;;;5049165;28;20209;-75
2021/03/31 09:50:11;;;;;;;9.65;7.55;;;31.60;43.20;;;;;;5044939;28;20218;-75
2021/03/31 09:52:39;;;;;;;9.27;7.60;;;31.30;42.50;;;;;;5044613;28;20297;-76
2021/03/31 09:55:08;;;;;;;10.25;7.90;;;31.20;42.50;;;;;;5048765;28;20205;-77
2021/03/31 09:57:37;;;;;;;12.05;7.82;;;31.30;43.70;;;;;;5048868;28;20206;-75
2021/03/31 10:00:06;;;;;;;11.73;8.07;;;31.40;42.20;;;;;;5052862;28;20236;-76
2021/03/31 10:02:34;;;;;;;8.38;7.18;;;31.10;42.90;;;;;;5051948;28;20241;-76
2021/03/31 10:05:03;;;;;;;9.05;7.35;;;30.90;42.90;;;;;;5054234;28;20240;-75
2021/03/31 10:07:29;;;;;;;9.25;7.07;;;30.50;42.70;;;;;;5050516;28;20236;-75
2021/03/31 10:09:56;;;;;;;10.25;8.35;;;30.00;43.10;;;;;;5055200;28;21030;-75
2021/03/31 10:12:25;;;;;;;10.32;6.97;;;29.50;44.10;;;;;;5055191;28;20624;-75
2021/03/31 10:14:55;;;;;;;10.23;7.07;;;29.10;45.30;;;;;;5058368;28;20274;-76
2021/03/31 10:17:23;;;;;;;11.32;7.75;;;28.80;45.80;;;;;;5058187;28;20582;-75
2021/03/31 10:19:50;;;;;;;9.60;7.35;;;28.70;47.20;;;;;;5058675;28;20301;-75
2021/03/31 10:22:18;;;;;;;11.57;7.88;;;28.90;46.10;;;;;;5064494;28;20666;-75
2021/03/31 10:24:45;;;;;;;10.90;7.45;;;28.90;47.00;;;;;;5059580;28;20384;-75
2021/03/31 10:27:14;;;;;;;10.73;7.32;;;28.90;46.00;;;;;;5055942;28;20703;-72
2021/03/31 10:29:48;;;;;;;9.00;7.10;;;28.80;46.60;;;;;;5052608;28;20322;-74
2021/03/31 10:32:17;;;;;;;14.27;8.48;;;28.90;47.40;;;;;;5057138;28;20296;-75
2021/03/31 10:34:46;;;;;;;8.60;7.18;;;29.30;46.00;;;;;;5057280;28;20285;-71
2021/03/31 10:37:19;;;;;;;11.65;8.15;;;29.30;46.80;;;;;;5056212;28;20213;-73
2021/03/31 10:48:41;;;;;;;11.32;7.60;;;29.00;47.00;;;;;;5044839;28;20255;-71
2021/03/31 10:51:14;;;;;;;9.73;8.07;;;28.70;47.00;;;;;;5054406;28;20226;-72
2021/03/31 10:53:44;;;;;;;10.82;8.32;;;28.40;47.60;;;;;;5056136;28;20210;-72
2021/03/31 10:56:11;;;;;;;12.93;8.05;;;27.90;47.80;;;;;;5055863;28;20693;-73
2021/03/31 10:58:37;;;;;;;11.07;8.27;;;27.50;48.30;;;;;;5055757;28;20260;-73
2021/03/31 11:01:04;;;;;;;10.93;9.25;;;27.20;48.80;;;;;;5056302;28;20663;-73
2021/03/31 11:03:31;;;;;;;12.10;9.40;;;26.90;49.40;;;;;;5055898;28;20206;-72
2021/03/31 11:05:58;;;;;;;11.57;8.48;;;26.70;50.40;;;;;;5055772;28;20229;-71
2021/03/31 11:08:25;;;;;;;10.98;9.30;;;26.50;50.90;;;;;;5056240;28;20202;-74
2021/03/31 11:10:52;;;;;;;10.90;9.07;;;26.40;50.30;;;;;;5055309;28;20319;-72
2021/03/31 11:13:18;;;;;;;11.35;8.88;;;26.40;50.90;;;;;;5053729;28;20671;-76
2021/03/31 11:15:45;;;;;;;11.73;8.40;;;26.60;51.00;;;;;;5053143;28;20212;-71
2021/03/31 11:18:16;;;;;;;12.77;8.40;;;26.90;50.90;;;;;;5054787;28;20214;-72
2021/03/31 11:21:00;;;;;;;15.07;8.98;;;27.40;50.00;;;;;;5054761;28;20205;-71
2021/03/31 11:26:11;;;;;;;12.00;8.63;;;27.50;49.20;;;;;;5054101;28;20192;-73
2021/03/31 11:28:37;;;;;;;11.63;8.98;;;27.40;49.30;;;;;;5050068;28;20291;-72
2021/03/31 11:31:05;;;;;;;10.98;7.53;;;27.30;49.20;;;;;;5044783;28;20290;-77
2021/03/31 11:33:32;;;;;;;10.75;8.63;;;27.30;49.60;;;;;;5051960;28;20630;-76
2021/03/31 11:35:59;;;;;;;12.45;9.32;;;27.20;49.80;;;;;;5055411;28;20266;-75
2021/03/31 11:38:26;;;;;;;13.45;9.35;;;27.20;50.20;;;;;;5058290;28;20615;-74
2021/03/31 11:40:53;;;;;;;12.38;9.02;;;27.30;49.80;;;;;;5049743;28;20237;-75
2021/03/31 11:43:19;;;;;;;9.85;8.68;;;27.40;50.10;;;;;;5051549;28;20689;-75
2021/03/31 11:45:47;;;;;;;10.68;8.80;;;27.50;49.70;;;;;;5055427;28;20206;-76
2021/03/31 11:48:14;;;;;;;11.95;9.43;;;27.50;49.30;;;;;;5053824;28;20225;-75
2021/03/31 11:50:40;;;;;;;10.45;9.35;;;27.50;49.20;;;;;;5055426;28;20218;-72
2021/03/31 11:53:08;;;;;;;14.18;9.98;;;27.40;49.40;;;;;;5056523;28;20212;-79
2021/03/31 11:55:34;;;;;;;10.65;9.55;;;27.50;49.80;;;;;;5057600;28;20635;-78
2021/03/31 11:58:01;;;;;;;11.75;9.52;;;27.60;49.30;;;;;;5056057;28;20642;-76
2021/03/31 12:00:27;;;;;;;14.63;10.65;;;27.50;49.00;;;;;;5054774;28;20547;-76
2021/03/31 12:02:54;;;;;;;15.30;9.88;;;27.40;49.30;;;;;;5055008;28;20206;-78
2021/03/31 12:05:20;;;;;;;13.32;8.45;;;27.20;49.80;;;;;;5058376;28;20278;-76
2021/03/31 12:07:46;;;;;;;11.85;9.05;;;26.90;50.20;;;;;;5055945;28;20208;-74
2021/03/31 12:10:14;;;;;;;11.02;8.85;;;26.80;50.20;;;;;;5055949;28;20320;-76
2021/03/31 12:12:42;;;;;;;10.45;8.05;;;26.60;51.00;;;;;;5044108;28;20206;-76
2021/03/31 12:15:11;;;;;;;10.02;8.80;;;26.50;52.10;;;;;;5044822;28;20257;-77
2021/03/31 12:17:38;;;;;;;11.00;8.57;;;26.80;51.20;;;;;;5054462;28;20229;-77
2021/03/31 12:20:07;;;;;;;11.70;8.38;;;26.90;50.80;;;;;;5055767;28;20645;-76
2021/03/31 12:22:34;;;;;;;13.45;9.05;;;26.90;50.60;;;;;;5052691;28;20244;-74
2021/03/31 12:25:00;;;;;;;14.05;8.50;;;26.90;50.60;;;;;;5053624;28;20280;-74
2021/03/31 12:27:29;;;;;;;11.10;8.32;;;26.80;50.00;;;;;;5053824;28;20263;-73
2021/03/31 12:29:55;;;;;;;10.07;7.43;;;26.70;50.30;;;;;;5053431;28;20308;-74
2021/03/31 12:32:22;;;;;;;10.52;7.68;;;26.50;50.20;;;;;;5057958;28;20297;-73
2021/03/31 12:34:48;;;;;;;12.85;8.15;;;26.40;51.40;;;;;;5052643;28;20576;-73
2021/03/31 12:37:15;;;;;;;10.80;7.07;;;26.40;50.70;;;;;;5053220;28;20724;-73
2021/03/31 12:39:41;;;;;;;9.90;7.15;;;26.30;50.50;;;;;;5052781;28;20253;-74
2021/03/31 12:42:08;;;;;;;9.63;7.00;;;26.40;50.00;;;;;;5052593;28;20198;-74
2021/03/31 12:44:35;;;;;;;8.35;6.43;;;26.50;50.00;;;;;;5053458;28;20220;-75
2021/03/31 12:47:02;;;;;;;9.48;6.22;;;26.50;49.50;;;;;;5053775;28;20213;-72
2021/03/31 12:49:29;;;;;;;9.35;7.43;;;26.40;49.60;;;;;;5054120;28;20221;-73
2021/03/31 12:52:00;;;;;;;9.73;7.35;;;26.20;49.50;;;;;;5051536;28;20206;-75